createdAt,value
2023-05-21T00:01:25.911Z,55.01
2023-05-21T00:03:53.393Z,54.99
2023-05-21T00:06:21.212Z,54.88
2023-05-21T00:08:47.778Z,55.29
2023-05-21T00:11:14.387Z,55.84
2023-05-21T00:13:41.517Z,55.34
2023-05-21T00:16:08.102Z,55.19
2023-05-21T00:18:34.708Z,55.08
2023-05-21T00:21:01.783Z,55.05
2023-05-21T00:23:28.464Z,55.18
2023-05-21T00:25:55.443Z,55.39
2023-05-21T00:28:22.028Z,55.47
2023-05-21T00:30:49.506Z,56.16
2023-05-21T00:33:16.176Z,55.80
2023-05-21T00:35:42.777Z,56.10
2023-05-21T00:38:09.422Z,55.68
2023-05-21T00:40:36.324Z,55.81
2023-05-21T00:43:03.415Z,55.76
2023-05-21T00:45:30.110Z,56.03
2023-05-21T00:47:56.820Z,55.86
2023-05-21T00:50:23.537Z,56.12
2023-05-21T00:52:50.185Z,56.14
2023-05-21T00:55:16.784Z,56.09
2023-05-21T00:57:45.940Z,56.25
2023-05-21T01:00:14.534Z,56.46
2023-05-21T01:02:42.087Z,56.75
2023-05-21T01:05:09.637Z,56.31
2023-05-21T01:07:38.955Z,56.48
2023-05-21T01:10:07.918Z,56.53
2023-05-21T01:12:35.522Z,56.28
2023-05-21T01:15:05.787Z,56.42
2023-05-21T01:17:34.220Z,56.70
2023-05-21T01:20:01.676Z,56.70
2023-05-21T01:22:29.295Z,56.92
2023-05-21T01:24:55.857Z,56.66
2023-05-21T01:27:22.927Z,57.06
2023-05-21T01:29:50.148Z,56.69
2023-05-21T01:32:52.079Z,56.97
2023-05-21T01:35:43.036Z,57.29
2023-05-21T01:38:17.692Z,57.28
2023-05-21T01:40:58.769Z,57.46
2023-05-21T01:43:27.325Z,57.76
2023-05-21T01:45:56.005Z,57.61
2023-05-21T01:48:24.144Z,57.59
2023-05-21T01:50:51.417Z,57.72
2023-05-21T01:53:18.115Z,57.69
2023-05-21T01:55:45.901Z,57.56
2023-05-21T01:58:12.491Z,57.95
2023-05-21T02:00:40.015Z,57.72
2023-05-21T02:03:07.289Z,57.63
2023-05-21T02:05:34.639Z,57.73
2023-05-21T02:08:01.395Z,57.63
2023-05-21T02:10:28.327Z,58.26
2023-05-21T02:12:55.337Z,58.10
2023-05-21T02:15:22.397Z,57.93
2023-05-21T02:17:51.484Z,58.24
2023-05-21T02:20:18.153Z,57.98
2023-05-21T02:22:46.897Z,57.44
2023-05-21T02:25:16.685Z,58.00
2023-05-21T02:27:43.625Z,58.11
2023-05-21T02:30:11.742Z,58.06
2023-05-21T02:32:43.018Z,58.41
2023-05-21T02:35:12.201Z,58.53
2023-05-21T02:37:40.428Z,58.36
2023-05-21T02:40:08.090Z,58.14
2023-05-21T02:42:34.656Z,58.63
2023-05-21T02:45:01.286Z,58.94
2023-05-21T02:47:28.489Z,58.68
2023-05-21T02:49:55.118Z,58.46
2023-05-21T02:52:24.448Z,58.35
2023-05-21T02:54:52.306Z,58.27
2023-05-21T02:57:19.258Z,58.52
2023-05-21T02:59:46.102Z,58.37
2023-05-21T03:04:46.227Z,58.27
2023-05-21T03:07:14.231Z,59.10
2023-05-21T03:09:42.006Z,59.07
2023-05-21T03:12:09.197Z,58.63
2023-05-21T03:14:35.804Z,58.79
2023-05-21T03:17:05.884Z,58.71
2023-05-21T03:19:35.778Z,58.72
2023-05-21T03:22:04.573Z,58.76
2023-05-21T03:24:35.211Z,58.97
2023-05-21T03:27:02.271Z,58.98
2023-05-21T03:29:28.945Z,59.09
2023-05-21T03:31:56.237Z,59.35
2023-05-21T03:34:23.295Z,59.08
2023-05-21T03:36:50.592Z,59.15
2023-05-21T03:39:18.498Z,58.98
2023-05-21T03:41:45.376Z,59.21
2023-05-21T03:44:19.868Z,58.99
2023-05-21T03:46:53.684Z,58.90
2023-05-21T03:49:26.841Z,58.94
2023-05-21T03:51:55.870Z,59.13
2023-05-21T03:54:23.549Z,59.04
2023-05-21T03:56:53.070Z,59.07
2023-05-21T03:59:20.169Z,58.89
2023-05-21T04:01:47.539Z,59.08
2023-05-21T04:04:16.697Z,59.32
2023-05-21T04:06:43.358Z,59.46
2023-05-21T04:09:11.090Z,59.16
2023-05-21T04:11:37.969Z,59.43
2023-05-21T04:14:04.728Z,59.31
2023-05-21T04:16:31.356Z,59.28
2023-05-21T04:18:57.917Z,59.34
2023-05-21T04:21:26.617Z,59.09
2023-05-21T04:23:54.138Z,59.70
2023-05-21T04:26:34.247Z,59.51
2023-05-21T04:29:04.933Z,59.60
2023-05-21T04:31:34.807Z,59.42
2023-05-21T04:34:02.820Z,59.53
2023-05-21T04:36:30.186Z,59.51
2023-05-21T04:38:57.020Z,59.52
2023-05-21T04:41:23.577Z,59.24
2023-05-21T04:43:54.864Z,59.40
2023-05-21T04:46:25.411Z,59.22
2023-05-21T04:48:55.594Z,59.54
2023-05-21T04:51:24.774Z,59.60
2023-05-21T04:53:52.009Z,59.72
2023-05-21T04:56:20.860Z,59.91
2023-05-21T04:58:48.179Z,60.01
2023-05-21T05:01:15.451Z,59.38
2023-05-21T05:03:42.556Z,59.49
2023-05-21T05:06:09.162Z,59.74
2023-05-21T05:08:36.141Z,59.38
2023-05-21T05:11:03.489Z,59.63
2023-05-21T05:13:30.104Z,59.49
2023-05-21T05:15:57.338Z,59.55
2023-05-21T05:18:24.413Z,59.51
2023-05-21T05:20:51.071Z,59.38
2023-05-21T05:23:17.668Z,59.68
2023-05-21T05:25:44.287Z,59.12
2023-05-21T05:28:10.868Z,59.52
2023-05-21T05:30:37.561Z,58.76
2023-05-21T05:33:16.739Z,58.75
2023-05-21T05:35:43.519Z,59.01
2023-05-21T05:38:10.442Z,58.63
2023-05-21T05:40:37.369Z,58.67
2023-05-21T05:43:03.946Z,59.19
2023-05-21T05:45:30.540Z,59.09
2023-05-21T05:47:57.322Z,58.93
2023-05-21T05:50:23.961Z,59.60
2023-05-21T05:52:51.210Z,59.10
2023-05-21T05:55:18.093Z,59.57
2023-05-21T05:57:45.174Z,59.65
2023-05-21T06:00:15.100Z,59.71
2023-05-21T06:02:48.192Z,59.36
2023-05-21T06:05:15.500Z,59.29
2023-05-21T06:07:42.174Z,59.29
2023-05-21T06:10:09.038Z,59.23
2023-05-21T06:12:35.681Z,59.64
2023-05-21T06:15:02.338Z,59.08
2023-05-21T06:17:29.903Z,59.52
2023-05-21T06:19:56.615Z,60.17
2023-05-21T06:22:25.674Z,60.17
2023-05-21T06:24:52.548Z,59.68
2023-05-21T06:27:19.231Z,59.04
2023-05-21T06:29:46.226Z,59.29
2023-05-21T06:32:13.266Z,58.83
2023-05-21T06:34:41.019Z,58.66
2023-05-21T06:37:07.687Z,59.03
2023-05-21T06:39:34.261Z,58.35
2023-05-21T06:42:00.964Z,58.70
2023-05-21T06:44:46.179Z,58.58
2023-05-21T06:47:27.422Z,58.72
2023-05-21T06:49:54.115Z,58.84
2023-05-21T06:52:21.285Z,58.98
2023-05-21T06:54:48.328Z,60.11
2023-05-21T06:57:16.319Z,60.20
2023-05-21T06:59:43.186Z,59.03
2023-05-21T07:02:10.052Z,60.70
2023-05-21T07:04:36.838Z,59.44
2023-05-21T07:07:04.587Z,59.65
2023-05-21T07:09:31.732Z,59.68
2023-05-21T07:11:58.425Z,59.58
2023-05-21T07:14:25.795Z,59.07
2023-05-21T07:16:52.855Z,59.00
2023-05-21T07:19:19.571Z,59.03
2023-05-21T07:21:46.313Z,58.71
2023-05-21T07:24:12.949Z,58.35
2023-05-21T07:26:40.524Z,60.87
2023-05-21T07:29:07.307Z,59.71
2023-05-21T07:31:34.045Z,58.83
2023-05-21T07:34:01.049Z,58.02
2023-05-21T07:36:31.074Z,57.98
2023-05-21T07:38:58.330Z,58.65
2023-05-21T07:41:24.940Z,57.16
2023-05-21T07:43:51.598Z,56.83
2023-05-21T07:46:18.234Z,58.00
2023-05-21T07:48:48.371Z,58.31
2023-05-21T07:51:15.154Z,57.17
2023-05-21T07:53:41.777Z,57.47
2023-05-21T07:56:11.260Z,56.30
2023-05-21T07:58:39.386Z,55.61
2023-05-21T08:01:06.281Z,55.75
2023-05-21T08:03:33.007Z,56.14
2023-05-21T08:05:59.652Z,55.48
2023-05-21T08:08:26.584Z,54.95
2023-05-21T08:10:56.138Z,54.50
2023-05-21T08:13:25.048Z,53.63
2023-05-21T08:15:53.411Z,53.52
2023-05-21T08:18:23.671Z,53.68
2023-05-21T08:20:51.654Z,54.93
2023-05-21T08:23:19.775Z,55.17
2023-05-21T08:25:50.652Z,55.29
2023-05-21T08:28:17.347Z,54.70
2023-05-21T08:30:43.936Z,54.75
2023-05-21T08:33:11.197Z,55.11
2023-05-21T08:35:38.572Z,54.56
2023-05-21T08:38:31.351Z,55.46
2023-05-21T08:41:24.196Z,55.35
2023-05-21T08:43:56.792Z,54.72
2023-05-21T08:46:24.995Z,55.02
2023-05-21T08:48:54.945Z,55.50
2023-05-21T08:51:22.158Z,55.88
2023-05-21T08:53:51.447Z,55.51
2023-05-21T08:56:20.122Z,55.73
2023-05-21T08:58:53.100Z,54.58
2023-05-21T09:01:24.142Z,51.67
2023-05-21T09:04:12.202Z,52.91
2023-05-21T09:06:46.984Z,54.18
2023-05-21T09:09:34.167Z,53.33
2023-05-21T09:12:01.157Z,52.81
2023-05-21T09:14:27.858Z,51.44
2023-05-21T09:17:12.955Z,54.61
2023-05-21T09:19:41.076Z,51.57
2023-05-21T09:22:07.651Z,51.46
2023-05-21T09:24:36.222Z,50.36
2023-05-21T09:27:05.602Z,50.10
2023-05-21T09:29:33.851Z,50.67
2023-05-21T09:32:05.825Z,52.43
2023-05-21T09:34:35.795Z,48.99
2023-05-21T09:37:02.475Z,52.28
2023-05-21T09:39:30.246Z,52.33
2023-05-21T09:42:00.442Z,53.46
2023-05-21T09:44:27.065Z,51.58
2023-05-21T09:46:57.930Z,48.82
2023-05-21T09:49:25.060Z,51.12
2023-05-21T09:51:56.063Z,47.63
2023-05-21T09:54:24.057Z,46.55
2023-05-21T09:56:53.669Z,47.75
2023-05-21T09:59:20.269Z,48.48
2023-05-21T10:01:46.766Z,47.86
2023-05-21T10:04:13.330Z,47.06
2023-05-21T10:06:43.225Z,48.79
2023-05-21T10:09:10.573Z,47.73
2023-05-21T10:11:37.319Z,45.47
2023-05-21T10:14:07.892Z,44.69
2023-05-21T10:16:34.870Z,46.00
2023-05-21T10:19:01.452Z,47.82
2023-05-21T10:21:28.161Z,47.81
2023-05-21T10:23:56.501Z,46.45
2023-05-21T10:26:23.549Z,47.37
2023-05-21T10:28:51.002Z,45.21
2023-05-21T10:31:17.994Z,45.42
2023-05-21T10:33:44.418Z,48.03
2023-05-21T10:36:11.274Z,46.99
2023-05-21T10:38:37.750Z,46.52
2023-05-21T10:41:05.163Z,46.91
2023-05-21T10:43:38.664Z,47.07
2023-05-21T10:46:20.506Z,46.63
2023-05-21T10:48:53.819Z,46.15
2023-05-21T10:51:20.336Z,47.67
2023-05-21T10:54:04.665Z,46.37
2023-05-21T10:56:50.040Z,44.15
2023-05-21T10:59:22.157Z,48.08
2023-05-21T11:01:49.377Z,46.97
2023-05-21T11:04:17.432Z,47.31
2023-05-21T11:06:47.729Z,46.51
2023-05-21T11:09:14.533Z,45.01
2023-05-21T11:11:46.041Z,45.04
2023-05-21T11:14:32.545Z,44.39
2023-05-21T11:16:59.651Z,46.13
2023-05-21T11:19:34.190Z,44.07
2023-05-21T11:22:00.842Z,44.70
2023-05-21T11:24:28.298Z,46.44
2023-05-21T11:26:58.489Z,44.85
2023-05-21T11:29:31.730Z,45.25
2023-05-21T11:32:05.691Z,45.16
2023-05-21T11:34:39.387Z,43.85
2023-05-21T11:37:25.659Z,45.17
2023-05-21T11:39:52.152Z,40.83
2023-05-21T11:42:34.700Z,41.01
2023-05-21T11:45:02.106Z,45.84
2023-05-21T11:47:28.891Z,46.66
2023-05-21T11:49:56.368Z,44.97
2023-05-21T11:52:23.208Z,42.03
2023-05-21T11:54:55.380Z,43.23
2023-05-21T11:57:22.133Z,43.82
2023-05-21T11:59:49.486Z,44.63
2023-05-21T12:02:16.871Z,44.50
2023-05-21T12:04:43.314Z,40.70
2023-05-21T12:07:11.670Z,44.11
2023-05-21T12:09:41.756Z,40.74
2023-05-21T12:12:08.619Z,42.36
2023-05-21T12:14:35.547Z,40.30
2023-05-21T12:17:05.625Z,42.76
2023-05-21T12:19:33.349Z,43.67
2023-05-21T12:22:04.095Z,43.03
2023-05-21T12:24:30.978Z,46.39
2023-05-21T12:27:01.432Z,42.06
2023-05-21T12:29:32.178Z,46.67
2023-05-21T12:32:02.223Z,44.54
2023-05-21T12:34:46.098Z,45.47
2023-05-21T12:37:12.567Z,43.64
2023-05-21T12:39:39.607Z,48.05
2023-05-21T12:42:06.291Z,45.09
2023-05-21T12:44:33.470Z,44.45
2023-05-21T12:47:01.600Z,45.30
2023-05-21T12:49:35.198Z,48.61
2023-05-21T12:52:05.809Z,44.86
2023-05-21T12:54:33.474Z,44.54
2023-05-21T12:57:05.923Z,43.77
2023-05-21T12:59:45.724Z,43.70
2023-05-21T13:02:28.697Z,43.04
2023-05-21T13:04:59.240Z,42.88
2023-05-21T13:07:26.616Z,44.35
2023-05-21T13:09:53.494Z,43.86
2023-05-21T13:12:23.435Z,40.49
2023-05-21T13:14:50.240Z,43.28
2023-05-21T13:17:17.425Z,42.35
2023-05-21T13:19:46.566Z,41.79
2023-05-21T13:22:12.981Z,41.34
2023-05-21T13:24:39.833Z,44.26
2023-05-21T13:27:06.539Z,45.91
2023-05-21T13:29:32.996Z,40.96
2023-05-21T13:32:01.237Z,40.12
2023-05-21T13:34:27.890Z,39.46
2023-05-21T13:36:54.342Z,37.33
2023-05-21T13:39:26.658Z,39.07
2023-05-21T13:41:53.196Z,38.30
2023-05-21T13:44:19.679Z,38.89
2023-05-21T13:46:46.199Z,38.47
2023-05-21T13:49:12.685Z,37.42
2023-05-21T13:51:39.536Z,38.15
2023-05-21T13:54:06.312Z,38.75
2023-05-21T13:56:33.809Z,38.30
2023-05-21T13:59:01.333Z,40.69
2023-05-21T14:01:28.628Z,39.31
2023-05-21T14:03:55.300Z,39.54
2023-05-21T14:06:21.740Z,36.52
2023-05-21T14:08:48.414Z,37.21
2023-05-21T14:11:16.486Z,36.96
2023-05-21T14:13:43.266Z,37.54
2023-05-21T14:16:09.823Z,35.16
2023-05-21T14:18:36.302Z,34.82
2023-05-21T14:21:03.275Z,36.02
2023-05-21T14:23:29.770Z,36.49
2023-05-21T14:25:56.423Z,36.20
2023-05-21T14:28:22.886Z,37.33
2023-05-21T14:30:49.301Z,37.54
2023-05-21T14:33:16.215Z,37.18
2023-05-21T14:35:44.035Z,37.29
2023-05-21T14:38:10.929Z,37.89
2023-05-21T14:40:37.353Z,38.46
2023-05-21T14:43:03.940Z,37.97
2023-05-21T14:45:30.372Z,37.77
2023-05-21T14:47:58.606Z,37.59
2023-05-21T14:50:25.759Z,37.99
2023-05-21T14:52:52.183Z,39.13
2023-05-21T14:55:18.665Z,39.36
2023-05-21T14:57:45.607Z,40.64
2023-05-21T15:00:13.319Z,41.62
2023-05-21T15:02:40.761Z,40.48
2023-05-21T15:05:07.351Z,40.23
2023-05-21T15:07:33.820Z,40.78
2023-05-21T15:10:00.412Z,39.27
2023-05-21T15:12:27.292Z,36.95
2023-05-21T15:14:54.127Z,38.50
2023-05-21T15:17:23.370Z,39.56
2023-05-21T15:19:52.922Z,40.52
2023-05-21T15:22:19.657Z,40.71
2023-05-21T15:24:46.282Z,41.48
2023-05-21T15:27:14.081Z,41.64
2023-05-21T15:29:40.678Z,41.83
2023-05-21T15:32:07.155Z,42.89
2023-05-21T15:34:33.869Z,40.92
2023-05-21T15:37:00.373Z,39.12
2023-05-21T15:39:27.295Z,39.49
2023-05-21T15:41:55.777Z,37.33
2023-05-21T15:44:22.394Z,38.31
2023-05-21T15:46:49.979Z,37.48
2023-05-21T15:49:16.842Z,39.84
2023-05-21T15:51:44.157Z,40.78
2023-05-21T15:54:10.811Z,42.68
2023-05-21T15:56:37.273Z,43.21
2023-05-21T15:59:03.967Z,43.92
2023-05-21T16:01:30.504Z,45.11
2023-05-21T16:03:57.074Z,45.56
2023-05-21T16:06:23.606Z,45.38
2023-05-21T16:08:50.091Z,45.46
2023-05-21T16:11:16.781Z,45.18
2023-05-21T16:13:43.347Z,45.59
2023-05-21T16:16:09.855Z,45.02
2023-05-21T16:18:37.328Z,45.35
2023-05-21T16:21:03.809Z,44.03
2023-05-21T16:23:30.318Z,44.08
2023-05-21T16:25:56.765Z,44.40
2023-05-21T16:28:24.371Z,45.45
2023-05-21T16:30:51.068Z,46.13
2023-05-21T16:33:17.550Z,46.61
2023-05-21T16:35:44.032Z,46.13
2023-05-21T16:38:10.486Z,46.81
2023-05-21T16:40:36.949Z,47.03
2023-05-21T16:43:03.375Z,48.14
2023-05-21T16:45:34.947Z,47.32
2023-05-21T16:48:01.504Z,46.99
2023-05-21T16:50:28.069Z,45.87
2023-05-21T16:52:54.717Z,46.85
2023-05-21T16:55:21.709Z,47.48
2023-05-21T16:57:48.228Z,47.83
2023-05-21T17:00:14.914Z,47.63
2023-05-21T17:02:41.363Z,47.18
2023-05-21T17:05:07.930Z,46.16
2023-05-21T17:07:34.395Z,47.59
2023-05-21T17:10:00.863Z,46.22
2023-05-21T17:12:27.306Z,46.12
2023-05-21T17:14:53.973Z,45.61
2023-05-21T17:17:20.532Z,45.82
2023-05-21T17:19:46.969Z,44.95
2023-05-21T17:22:13.641Z,41.87
2023-05-21T17:24:40.071Z,44.81
2023-05-21T17:27:06.510Z,44.98
2023-05-21T17:29:33.024Z,44.55
2023-05-21T17:31:59.738Z,44.33
2023-05-21T17:34:29.333Z,45.14
2023-05-21T17:36:56.368Z,45.56
2023-05-21T17:39:22.809Z,44.48
2023-05-21T17:41:49.790Z,44.82
2023-05-21T17:44:19.268Z,44.60
2023-05-21T17:46:46.357Z,43.96
2023-05-21T17:49:12.956Z,44.68
2023-05-21T17:51:39.414Z,45.30
2023-05-21T17:54:07.992Z,45.89
2023-05-21T17:56:38.861Z,45.85
2023-05-21T17:59:06.564Z,46.33
2023-05-21T18:01:34.027Z,44.86
2023-05-21T18:04:00.525Z,45.49
2023-05-21T18:06:28.791Z,45.96
2023-05-21T18:08:55.395Z,46.96
2023-05-21T18:11:22.276Z,45.38
2023-05-21T18:13:49.368Z,46.51
2023-05-21T18:16:16.234Z,46.62
2023-05-21T18:18:42.984Z,46.26
2023-05-21T18:21:09.942Z,46.39
2023-05-21T18:23:36.620Z,44.00
2023-05-21T18:26:03.068Z,45.49
2023-05-21T18:28:33.065Z,46.33
2023-05-21T18:31:04.329Z,46.39
2023-05-21T18:33:31.231Z,46.11
2023-05-21T18:35:57.663Z,46.16
2023-05-21T18:38:24.120Z,45.88
2023-05-21T18:40:50.971Z,46.85
2023-05-21T18:43:20.681Z,46.17
2023-05-21T18:45:47.181Z,47.16
2023-05-21T18:48:28.573Z,46.91
2023-05-21T18:50:55.314Z,46.94
2023-05-21T18:53:21.795Z,46.96
2023-05-21T18:55:48.285Z,47.67
2023-05-21T18:58:14.721Z,46.88
2023-05-21T19:08:42.173Z,48.04
2023-05-21T19:11:08.814Z,47.94
2023-05-21T19:13:35.669Z,48.22
2023-05-21T19:16:02.264Z,48.75
2023-05-21T19:18:32.382Z,49.17
2023-05-21T19:21:00.243Z,48.66
2023-05-21T19:23:26.782Z,48.41
2023-05-21T19:25:53.218Z,48.85
2023-05-21T19:28:19.726Z,48.79
2023-05-21T19:30:46.431Z,48.96
2023-05-21T19:33:13.090Z,49.21
2023-05-21T19:35:41.474Z,49.10
2023-05-21T19:38:09.805Z,49.34
2023-05-21T19:40:36.390Z,49.66
2023-05-21T19:43:03.537Z,49.38
2023-05-21T19:45:29.999Z,49.72
2023-05-21T19:47:56.742Z,49.61
2023-05-21T19:50:23.566Z,50.01
2023-05-21T19:52:49.985Z,50.05
2023-05-21T19:55:19.988Z,50.34
2023-05-21T19:57:47.211Z,50.35
2023-05-21T20:00:14.498Z,50.26
2023-05-21T20:02:41.108Z,50.17
2023-05-21T20:05:08.230Z,50.70
2023-05-21T20:07:34.761Z,50.58
2023-05-21T20:10:01.519Z,50.48
2023-05-21T20:12:28.003Z,51.35
2023-05-21T20:14:54.944Z,51.20
2023-05-21T20:17:21.409Z,51.10
2023-05-21T20:19:48.059Z,50.72
2023-05-21T20:22:15.497Z,51.21
2023-05-21T20:24:42.899Z,51.37
2023-05-21T20:27:09.693Z,51.21
2023-05-21T20:29:36.179Z,51.25
2023-05-21T20:32:02.697Z,51.65
2023-05-21T20:34:29.670Z,51.36
2023-05-21T20:36:58.066Z,51.40
2023-05-21T20:39:27.212Z,51.24
2023-05-21T20:41:53.964Z,51.26
2023-05-21T20:44:21.298Z,51.45
2023-05-21T20:46:48.638Z,51.78
2023-05-21T20:49:15.232Z,52.37
2023-05-21T20:51:41.675Z,51.56
2023-05-21T20:54:09.257Z,51.86
2023-05-21T20:56:42.079Z,53.03
2023-05-21T20:59:10.908Z,52.52
2023-05-21T21:01:38.128Z,52.35
2023-05-21T21:04:07.675Z,52.50
2023-05-21T21:06:34.818Z,52.47
2023-05-21T21:09:01.293Z,52.46
2023-05-21T21:11:27.872Z,52.25
2023-05-21T21:13:54.302Z,52.92
2023-05-21T21:16:20.920Z,52.80
2023-05-21T21:18:47.466Z,53.13
2023-05-21T21:21:13.961Z,53.00
2023-05-21T21:23:40.518Z,52.77
2023-05-21T21:26:07.318Z,52.81
2023-05-21T21:28:33.966Z,52.89
2023-05-21T21:31:00.763Z,52.83
2023-05-21T21:33:28.405Z,53.00
2023-05-21T21:35:55.138Z,53.75
2023-05-21T21:38:22.237Z,53.41
2023-05-21T21:40:48.833Z,53.86
2023-05-21T21:43:15.456Z,54.09
2023-05-21T21:45:42.416Z,53.68
2023-05-21T21:48:09.000Z,53.32
2023-05-21T21:50:35.818Z,53.71
2023-05-21T21:53:03.652Z,53.21
2023-05-21T21:55:30.305Z,54.08
2023-05-21T21:57:56.864Z,54.05
2023-05-21T22:00:26.584Z,54.14
2023-05-21T22:02:53.795Z,53.83
2023-05-21T22:05:20.287Z,54.02
2023-05-21T22:07:46.848Z,53.88
2023-05-21T22:10:14.923Z,54.36
2023-05-21T22:12:41.523Z,54.42
2023-05-21T22:15:08.546Z,53.95
2023-05-21T22:17:35.078Z,54.49
2023-05-21T22:20:01.594Z,53.84
2023-05-21T22:22:28.084Z,54.41
2023-05-21T22:24:54.588Z,53.86
2023-05-21T22:27:21.156Z,54.33
2023-05-21T22:29:47.670Z,54.15
2023-05-21T22:32:14.276Z,54.02
2023-05-21T22:34:41.917Z,54.30
2023-05-21T22:37:08.338Z,54.48
2023-05-21T22:39:34.754Z,54.43
2023-05-21T22:42:01.422Z,54.83
2023-05-21T22:44:27.857Z,54.41
2023-05-21T22:46:56.404Z,54.47
2023-05-21T22:49:23.282Z,54.83
2023-05-21T22:51:51.023Z,54.38
2023-05-21T22:54:17.565Z,54.66
2023-05-21T22:56:44.921Z,54.62
2023-05-21T22:59:11.381Z,54.27
2023-05-21T23:01:38.323Z,54.41
2023-05-21T23:04:04.956Z,54.32
2023-05-21T23:06:31.739Z,54.41
2023-05-21T23:08:58.206Z,54.62
2023-05-21T23:11:24.672Z,54.47
2023-05-21T23:13:51.126Z,55.37
2023-05-21T23:16:17.620Z,55.64
2023-05-21T23:18:44.078Z,55.39
2023-05-21T23:21:10.631Z,55.66
2023-05-21T23:23:37.128Z,55.51
2023-05-21T23:26:03.579Z,55.29
2023-05-21T23:28:30.206Z,55.28
2023-05-21T23:30:56.987Z,54.80
2023-05-21T23:33:23.419Z,55.58
2023-05-21T23:35:50.018Z,55.67
2023-05-21T23:38:16.633Z,55.37
2023-05-21T23:40:43.365Z,55.05
2023-05-21T23:43:10.023Z,55.72
2023-05-21T23:45:37.103Z,54.98
2023-05-21T23:48:03.897Z,55.46
2023-05-21T23:50:30.525Z,55.77
2023-05-21T23:52:57.040Z,55.44
2023-05-21T23:55:23.523Z,55.72
2023-05-21T23:57:49.974Z,55.62
